createdAt,value
2023-03-22T00:00:15.233Z,46.33
2023-03-22T00:03:04.026Z,44.03
2023-03-22T00:05:31.451Z,46.78
2023-03-22T00:07:59.202Z,46.13
2023-03-22T00:10:31.868Z,46.88
2023-03-22T00:12:59.932Z,49.30
2023-03-22T00:15:29.734Z,48.25
2023-03-22T00:17:59.143Z,47.70
2023-03-22T00:20:26.961Z,53.85
2023-03-22T00:22:54.430Z,53.15
2023-03-22T00:25:21.538Z,60.05
2023-03-22T00:27:49.133Z,76.75
2023-03-22T00:30:16.350Z,61.58
2023-03-22T00:32:43.811Z,58.42
2023-03-22T00:35:11.635Z,51.03
2023-03-22T00:37:39.371Z,48.85
2023-03-22T00:40:13.380Z,56.25
2023-03-22T00:42:41.843Z,52.47
2023-03-22T00:45:11.504Z,56.42
2023-03-22T00:47:39.217Z,57.22
2023-03-22T00:50:08.113Z,53.50
2023-03-22T00:52:35.636Z,52.38
2023-03-22T00:55:02.892Z,48.97
2023-03-22T00:57:30.576Z,52.53
2023-03-22T00:59:58.481Z,61.65
2023-03-22T01:02:29.949Z,63.80
2023-03-22T01:04:57.989Z,56.42
2023-03-22T01:07:26.838Z,67.70
2023-03-22T01:09:54.376Z,57.53
2023-03-22T01:12:21.879Z,63.20
2023-03-22T01:14:49.234Z,56.90
2023-03-22T01:17:16.849Z,60.13
2023-03-22T01:19:44.057Z,62.10
2023-03-22T01:22:11.530Z,60.63
2023-03-22T01:24:39.267Z,67.68
2023-03-22T01:27:06.742Z,70.32
2023-03-22T01:29:35.506Z,69.63
2023-03-22T01:32:04.406Z,65.13
2023-03-22T01:34:31.735Z,71.03
2023-03-22T01:36:59.362Z,90.70
2023-03-22T01:39:27.624Z,82.85
2023-03-22T01:41:59.252Z,64.68
2023-03-22T01:44:30.823Z,61.08
2023-03-22T01:46:59.754Z,74.10
2023-03-22T01:49:31.712Z,102.00
2023-03-22T01:52:06.026Z,98.07
2023-03-22T01:54:50.248Z,95.68
2023-03-22T01:57:27.437Z,88.30
2023-03-22T01:59:55.488Z,76.80
2023-03-22T02:02:44.476Z,74.57
2023-03-22T02:05:23.549Z,70.47
2023-03-22T02:07:53.213Z,73.20
2023-03-22T02:10:27.350Z,72.35
2023-03-22T02:13:51.806Z,60.90
2023-03-22T02:16:47.086Z,57.97
2023-03-22T02:19:52.148Z,64.03
2023-03-22T02:22:39.377Z,56.95
2023-03-22T02:25:44.473Z,52.42
2023-03-22T02:28:17.385Z,57.13
2023-03-22T02:31:06.678Z,51.90
2023-03-22T02:33:55.969Z,55.38
2023-03-22T02:36:57.044Z,55.00
2023-03-22T02:39:48.337Z,58.85
2023-03-22T02:42:42.507Z,56.60
2023-03-22T02:45:23.615Z,59.08
2023-03-22T02:48:26.633Z,62.70
2023-03-22T02:50:59.850Z,58.38
2023-03-22T02:53:42.259Z,56.65
2023-03-22T02:56:29.164Z,54.25
2023-03-22T02:59:01.125Z,58.00
2023-03-22T03:01:50.161Z,58.47
2023-03-22T03:04:32.479Z,57.92
2023-03-22T03:07:04.579Z,57.85
2023-03-22T03:09:33.618Z,61.88
2023-03-22T03:12:00.817Z,54.47
2023-03-22T03:14:33.278Z,55.28
2023-03-22T03:17:13.538Z,59.42
2023-03-22T03:19:51.356Z,58.05
2023-03-22T03:22:29.895Z,57.13
2023-03-22T03:25:09.602Z,55.25
2023-03-22T03:27:46.384Z,57.13
2023-03-22T03:30:20.664Z,56.83
2023-03-22T03:32:53.657Z,50.50
2023-03-22T03:35:39.743Z,54.60
2023-03-22T03:38:15.115Z,54.17
2023-03-22T03:40:47.621Z,55.60
2023-03-22T03:43:16.171Z,58.45
2023-03-22T03:45:44.680Z,59.35
2023-03-22T03:48:18.570Z,68.97
2023-03-22T03:50:50.412Z,70.38
2023-03-22T03:53:18.643Z,78.57
2023-03-22T03:55:46.496Z,80.43
2023-03-22T03:58:16.244Z,79.10
2023-03-22T04:00:46.639Z,80.60
2023-03-22T04:03:34.097Z,83.75
2023-03-22T04:06:22.123Z,79.57
2023-03-22T04:08:56.741Z,75.85
2023-03-22T04:11:28.821Z,75.97
2023-03-22T04:14:00.103Z,71.90
2023-03-22T04:16:27.799Z,74.00
2023-03-22T04:18:58.083Z,71.78
2023-03-22T04:21:25.629Z,65.53
2023-03-22T04:24:03.214Z,57.08
2023-03-22T04:26:36.337Z,61.20
2023-03-22T04:29:22.285Z,63.92
2023-03-22T04:31:54.924Z,70.88
2023-03-22T04:34:29.878Z,69.28
2023-03-22T04:37:02.741Z,75.50
2023-03-22T04:39:35.032Z,71.13
2023-03-22T04:42:21.105Z,67.25
2023-03-22T04:44:53.217Z,65.25
2023-03-22T04:47:21.012Z,60.38
2023-03-22T04:49:48.210Z,67.03
2023-03-22T04:52:17.212Z,64.93
2023-03-22T04:54:51.591Z,66.13
2023-03-22T04:57:19.268Z,66.10
2023-03-22T04:59:48.450Z,63.55
2023-03-22T05:02:16.966Z,59.80
2023-03-22T05:04:44.440Z,59.70
2023-03-22T05:07:35.500Z,55.40
2023-03-22T05:10:04.583Z,50.78
2023-03-22T05:12:32.314Z,52.40
2023-03-22T05:15:22.869Z,51.42
2023-03-22T05:17:52.133Z,48.35
2023-03-22T05:20:19.921Z,49.25
2023-03-22T05:22:57.196Z,44.85
2023-03-22T05:25:26.970Z,48.22
2023-03-22T05:27:54.834Z,47.20
2023-03-22T05:30:35.866Z,51.47
2023-03-22T05:33:17.132Z,52.55
2023-03-22T05:35:46.394Z,54.45
2023-03-22T05:38:14.273Z,51.10
2023-03-22T05:40:46.631Z,48.55
2023-03-22T05:43:15.708Z,49.92
2023-03-22T05:45:48.230Z,50.92
2023-03-22T05:48:45.275Z,51.55
2023-03-22T05:51:17.858Z,51.03
2023-03-22T05:53:49.158Z,53.15
2023-03-22T05:56:24.553Z,52.08
2023-03-22T05:59:00.317Z,45.22
2023-03-22T06:01:27.710Z,48.08
2023-03-22T06:04:11.028Z,49.45
2023-03-22T06:06:50.733Z,48.35
2023-03-22T06:09:47.871Z,47.58
2023-03-22T06:12:22.754Z,47.20
2023-03-22T06:14:54.217Z,44.73
2023-03-22T06:17:48.187Z,44.30
2023-03-22T06:20:21.202Z,44.75
2023-03-22T06:22:55.786Z,46.65
2023-03-22T06:25:24.194Z,43.53
2023-03-22T06:27:51.458Z,42.78
2023-03-22T06:30:19.591Z,43.78
2023-03-22T06:33:09.714Z,40.97
2023-03-22T06:35:40.522Z,40.33
2023-03-22T06:38:10.159Z,36.20
2023-03-22T06:40:39.195Z,35.58
2023-03-22T06:43:07.439Z,34.05
2023-03-22T06:45:37.701Z,33.03
2023-03-22T06:48:06.402Z,34.15
2023-03-22T06:50:45.942Z,32.92
2023-03-22T06:53:15.932Z,34.33
2023-03-22T06:55:44.195Z,44.58
2023-03-22T06:58:15.839Z,36.13
2023-03-22T07:00:43.369Z,35.35
2023-03-22T07:03:10.761Z,35.00
2023-03-22T07:05:47.803Z,33.38
2023-03-22T07:08:15.037Z,32.28
2023-03-22T07:10:51.721Z,28.63
2023-03-22T07:13:21.856Z,29.30
2023-03-22T07:16:04.876Z,31.08
2023-03-22T07:18:45.963Z,29.75
2023-03-22T07:21:14.755Z,34.65
2023-03-22T07:23:43.701Z,29.67
2023-03-22T07:26:15.218Z,31.38
2023-03-22T07:28:46.336Z,28.90
2023-03-22T07:31:15.808Z,27.30
2023-03-22T07:34:06.717Z,29.52
2023-03-22T07:36:46.183Z,30.08
2023-03-22T07:39:13.971Z,29.20
2023-03-22T07:41:45.540Z,31.98
2023-03-22T07:44:38.934Z,29.17
2023-03-22T07:47:24.527Z,28.73
2023-03-22T07:50:21.783Z,29.02
2023-03-22T07:52:54.427Z,30.75
2023-03-22T07:55:21.824Z,30.45
2023-03-22T07:57:49.437Z,32.75
2023-03-22T08:00:17.720Z,29.27
2023-03-22T08:02:57.495Z,30.92
2023-03-22T08:05:51.885Z,31.70
2023-03-22T08:08:20.858Z,34.30
2023-03-22T08:10:51.892Z,35.33
2023-03-22T08:13:19.898Z,28.42
2023-03-22T08:15:47.345Z,29.23
2023-03-22T08:18:15.118Z,27.35
2023-03-22T08:20:45.634Z,24.55
2023-03-22T08:23:22.617Z,23.38
2023-03-22T08:26:12.089Z,24.77
2023-03-22T08:28:40.050Z,22.38
2023-03-22T08:31:13.891Z,22.88
2023-03-22T08:33:45.430Z,21.65
2023-03-22T08:36:17.142Z,20.67
2023-03-22T08:38:50.844Z,19.02
2023-03-22T08:41:23.759Z,17.77
2023-03-22T08:47:58.445Z,15.77
2023-03-22T08:50:26.872Z,14.63
2023-03-22T08:53:07.804Z,12.23
2023-03-22T08:55:37.550Z,12.55
2023-03-22T08:58:16.610Z,14.40
2023-03-22T09:01:15.087Z,13.70
2023-03-22T09:03:53.138Z,13.85
2023-03-22T09:06:21.156Z,14.30
2023-03-22T09:08:52.245Z,13.70
2023-03-22T09:11:22.975Z,14.25
2023-03-22T09:13:51.517Z,15.27
2023-03-22T09:16:19.837Z,14.95
2023-03-22T09:18:47.999Z,14.88
2023-03-22T09:21:18.424Z,17.52
2023-03-22T09:23:56.412Z,15.27
2023-03-22T09:26:32.331Z,14.43
2023-03-22T09:29:00.152Z,15.60
2023-03-22T09:31:28.902Z,15.02
2023-03-22T09:34:16.956Z,15.18
2023-03-22T09:36:44.753Z,12.50
2023-03-22T09:39:13.525Z,13.18
2023-03-22T09:41:48.662Z,13.32
2023-03-22T09:44:22.895Z,11.00
2023-03-22T09:46:54.953Z,11.48
2023-03-22T09:49:50.489Z,10.63
2023-03-22T09:52:20.292Z,9.73
2023-03-22T09:54:47.918Z,10.68
2023-03-22T09:57:36.684Z,11.63
2023-03-22T10:00:15.020Z,10.90
2023-03-22T10:03:26.075Z,11.02
2023-03-22T10:06:03.206Z,10.50
2023-03-22T10:08:59.993Z,11.05
2023-03-22T10:11:52.690Z,9.65
2023-03-22T10:14:51.709Z,10.00
2023-03-22T10:17:57.764Z,9.73
2023-03-22T10:20:52.736Z,9.43
2023-03-22T10:23:52.758Z,9.45
2023-03-22T10:26:25.981Z,9.27
2023-03-22T10:29:02.692Z,7.13
2023-03-22T10:31:33.949Z,8.18
2023-03-22T10:34:13.674Z,7.82
2023-03-22T10:36:42.876Z,8.90
2023-03-22T10:39:19.046Z,7.63
2023-03-22T10:41:47.770Z,7.05
2023-03-22T10:44:19.175Z,5.85
2023-03-22T10:46:50.667Z,5.25
2023-03-22T10:49:42.885Z,5.00
2023-03-22T10:52:43.098Z,4.40
2023-03-22T10:55:13.430Z,5.10
2023-03-22T10:57:43.486Z,5.20
2023-03-22T11:00:15.387Z,3.83
2023-03-22T11:02:58.555Z,4.50
2023-03-22T11:05:30.790Z,4.55
2023-03-22T11:07:59.911Z,5.63
2023-03-22T11:10:35.261Z,4.50
2023-03-22T11:13:10.431Z,5.15
2023-03-22T11:15:49.881Z,5.43
2023-03-22T11:18:18.982Z,4.50
2023-03-22T11:21:07.636Z,4.93
2023-03-22T11:23:38.754Z,5.72
2023-03-22T11:26:10.287Z,4.63
2023-03-22T11:28:49.781Z,4.88
2023-03-22T11:31:19.581Z,6.78
2023-03-22T11:33:59.270Z,5.75
2023-03-22T11:36:28.615Z,5.50
2023-03-22T11:39:01.380Z,8.77
2023-03-22T11:41:32.341Z,4.70
2023-03-22T11:44:12.370Z,5.72
2023-03-22T11:46:48.595Z,5.63
2023-03-22T11:49:17.980Z,6.40
2023-03-22T11:51:45.813Z,5.25
2023-03-22T11:54:17.008Z,5.35
2023-03-22T11:56:48.392Z,5.35
2023-03-22T11:59:30.875Z,4.93
2023-03-22T12:02:06.782Z,4.95
2023-03-22T12:04:39.184Z,5.15
2023-03-22T12:07:14.615Z,5.95
2023-03-22T12:09:50.297Z,6.25
2023-03-22T12:12:29.100Z,5.72
2023-03-22T12:14:56.682Z,5.93
2023-03-22T12:17:34.243Z,5.10
2023-03-22T12:20:31.048Z,6.38
2023-03-22T12:22:58.659Z,5.90
2023-03-22T12:25:32.649Z,4.78
2023-03-22T12:28:05.154Z,5.78
2023-03-22T12:30:59.562Z,6.22
2023-03-22T12:33:31.289Z,6.15
2023-03-22T12:36:02.895Z,4.53
2023-03-22T12:38:48.523Z,5.45
2023-03-22T12:41:22.229Z,5.22
2023-03-22T12:43:58.159Z,5.03
2023-03-22T12:46:30.633Z,4.97
2023-03-22T12:49:07.454Z,6.63
2023-03-22T12:51:35.772Z,5.55
2023-03-22T12:54:03.564Z,5.32
2023-03-22T12:56:40.331Z,4.68
2023-03-22T12:59:17.487Z,5.25
2023-03-22T13:01:54.355Z,4.40
2023-03-22T13:04:29.656Z,9.68
2023-03-22T13:07:09.264Z,4.80
2023-03-22T13:10:22.703Z,7.07
2023-03-22T13:13:16.743Z,7.28
2023-03-22T13:15:56.216Z,4.75
2023-03-22T13:18:44.202Z,5.70
2023-03-22T13:21:15.536Z,7.20
2023-03-22T13:24:10.659Z,10.68
2023-03-22T13:26:47.690Z,4.22
2023-03-22T13:29:22.652Z,3.10
2023-03-22T13:32:30.100Z,2.60
2023-03-22T13:34:57.950Z,3.13
2023-03-22T13:37:44.617Z,4.55
2023-03-22T13:40:42.862Z,3.78
2023-03-22T13:43:17.355Z,3.20
2023-03-22T13:46:05.275Z,3.60
2023-03-22T13:48:46.819Z,3.17
2023-03-22T13:51:30.557Z,13.82
2023-03-22T13:54:28.888Z,6.15
2023-03-22T13:57:00.495Z,3.15
2023-03-22T13:59:27.982Z,3.08
2023-03-22T14:02:16.534Z,4.35
2023-03-22T14:04:46.399Z,5.80
2023-03-22T14:07:35.733Z,3.20
2023-03-22T14:10:14.628Z,8.88
2023-03-22T14:12:48.260Z,5.00
2023-03-22T14:15:19.511Z,5.88
2023-03-22T14:17:50.970Z,3.50
2023-03-22T14:20:22.446Z,3.47
